sensor_id;sensor_type;location;lat;lon;timestamp;temperature;humidity
10644;DHT22;5370;50.132;8.626;2022-12-18T00:02:05;-5.60;90.80
10644;DHT22;5370;50.132;8.626;2022-12-18T00:04:30;-5.70;90.50
10644;DHT22;5370;50.132;8.626;2022-12-18T00:06:56;-5.70;90.40
10644;DHT22;5370;50.132;8.626;2022-12-18T00:09:22;-5.80;90.30
10644;DHT22;5370;50.132;8.626;2022-12-18T00:11:47;-5.80;90.30
10644;DHT22;5370;50.132;8.626;2022-12-18T00:14:13;-5.90;90.30
10644;DHT22;5370;50.132;8.626;2022-12-18T00:16:39;-5.90;90.60
10644;DHT22;5370;50.132;8.626;2022-12-18T00:19:05;-6.00;90.20
10644;DHT22;5370;50.132;8.626;2022-12-18T00:21:33;-6.00;90.10
10644;DHT22;5370;50.132;8.626;2022-12-18T00:24:00;-6.00;90.10
10644;DHT22;5370;50.132;8.626;2022-12-18T00:26:28;-6.10;89.90
10644;DHT22;5370;50.132;8.626;2022-12-18T00:28:57;-6.20;89.50
10644;DHT22;5370;50.132;8.626;2022-12-18T00:31:24;-6.30;89.40
10644;DHT22;5370;50.132;8.626;2022-12-18T00:33:50;-6.40;89.50
10644;DHT22;5370;50.132;8.626;2022-12-18T00:36:18;-6.40;89.70
10644;DHT22;5370;50.132;8.626;2022-12-18T00:38:45;-6.40;89.80
10644;DHT22;5370;50.132;8.626;2022-12-18T00:41:12;-6.50;89.80
10644;DHT22;5370;50.132;8.626;2022-12-18T00:43:38;-6.50;89.90
10644;DHT22;5370;50.132;8.626;2022-12-18T00:46:05;-6.50;89.80
10644;DHT22;5370;50.132;8.626;2022-12-18T00:48:30;-6.50;89.90
10644;DHT22;5370;50.132;8.626;2022-12-18T00:50:56;-6.50;89.80
10644;DHT22;5370;50.132;8.626;2022-12-18T00:53:22;-6.50;89.90
10644;DHT22;5370;50.132;8.626;2022-12-18T00:55:47;-6.50;89.80
10644;DHT22;5370;50.132;8.626;2022-12-18T00:58:15;-6.50;89.60
10644;DHT22;5370;50.132;8.626;2022-12-18T01:00:41;-6.60;89.40
10644;DHT22;5370;50.132;8.626;2022-12-18T01:03:07;-6.60;89.40
10644;DHT22;5370;50.132;8.626;2022-12-18T01:05:33;-6.60;89.30
10644;DHT22;5370;50.132;8.626;2022-12-18T01:07:58;-6.70;89.20
10644;DHT22;5370;50.132;8.626;2022-12-18T01:10:25;-6.70;89.20
10644;DHT22;5370;50.132;8.626;2022-12-18T01:12:51;-6.70;89.40
10644;DHT22;5370;50.132;8.626;2022-12-18T01:15:17;-6.80;89.20
10644;DHT22;5370;50.132;8.626;2022-12-18T01:17:43;-6.80;89.30
10644;DHT22;5370;50.132;8.626;2022-12-18T01:20:11;-6.80;89.30
10644;DHT22;5370;50.132;8.626;2022-12-18T01:22:37;-6.80;89.40
10644;DHT22;5370;50.132;8.626;2022-12-18T01:25:04;-6.80;89.40
10644;DHT22;5370;50.132;8.626;2022-12-18T01:27:30;-6.80;89.50
10644;DHT22;5370;50.132;8.626;2022-12-18T01:29:56;-6.80;89.50
10644;DHT22;5370;50.132;8.626;2022-12-18T01:32:22;-6.90;89.50
10644;DHT22;5370;50.132;8.626;2022-12-18T01:34:47;-6.90;89.40
10644;DHT22;5370;50.132;8.626;2022-12-18T01:37:13;-6.90;89.50
10644;DHT22;5370;50.132;8.626;2022-12-18T01:39:38;-6.90;89.50
10644;DHT22;5370;50.132;8.626;2022-12-18T01:42:10;-6.90;89.50
10644;DHT22;5370;50.132;8.626;2022-12-18T01:50:21;-6.90;90.00
10644;DHT22;5370;50.132;8.626;2022-12-18T01:52:53;-7.00;89.40
10644;DHT22;5370;50.132;8.626;2022-12-18T01:55:22;-7.00;89.60
10644;DHT22;5370;50.132;8.626;2022-12-18T01:57:48;-7.00;89.70
10644;DHT22;5370;50.132;8.626;2022-12-18T02:00:17;-6.90;90.00
10644;DHT22;5370;50.132;8.626;2022-12-18T02:02:45;-6.90;90.00
10644;DHT22;5370;50.132;8.626;2022-12-18T02:05:12;-6.80;90.10
10644;DHT22;5370;50.132;8.626;2022-12-18T02:10:20;-6.80;90.00
10644;DHT22;5370;50.132;8.626;2022-12-18T02:16:15;-6.80;90.00
10644;DHT22;5370;50.132;8.626;2022-12-18T02:18:49;-6.70;90.00
10644;DHT22;5370;50.132;8.626;2022-12-18T02:21:25;-6.70;90.00
10644;DHT22;5370;50.132;8.626;2022-12-18T02:26:35;-6.70;90.00
10644;DHT22;5370;50.132;8.626;2022-12-18T02:29:11;-6.70;90.30
10644;DHT22;5370;50.132;8.626;2022-12-18T02:31:47;-6.70;90.00
10644;DHT22;5370;50.132;8.626;2022-12-18T02:34:15;-6.60;90.00
10644;DHT22;5370;50.132;8.626;2022-12-18T02:36:44;-6.60;90.00
10644;DHT22;5370;50.132;8.626;2022-12-18T02:39:11;-6.60;90.00
10644;DHT22;5370;50.132;8.626;2022-12-18T02:41:38;-6.60;90.00
10644;DHT22;5370;50.132;8.626;2022-12-18T02:44:12;-6.50;90.00
10644;DHT22;5370;50.132;8.626;2022-12-18T02:46:46;-6.60;89.90
10644;DHT22;5370;50.132;8.626;2022-12-18T02:52:02;-6.60;89.80
10644;DHT22;5370;50.132;8.626;2022-12-18T02:57:24;-6.70;89.60
10644;DHT22;5370;50.132;8.626;2022-12-18T03:00:14;-6.70;89.50
10644;DHT22;5370;50.132;8.626;2022-12-18T03:07:49;-6.90;89.60
10644;DHT22;5370;50.132;8.626;2022-12-18T03:10:20;-6.90;89.60
10644;DHT22;5370;50.132;8.626;2022-12-18T03:12:52;-7.00;89.80
10644;DHT22;5370;50.132;8.626;2022-12-18T03:15:25;-7.00;89.90
10644;DHT22;5370;50.132;8.626;2022-12-18T03:17:59;-7.00;90.00
10644;DHT22;5370;50.132;8.626;2022-12-18T03:20:29;-7.10;90.00
10644;DHT22;5370;50.132;8.626;2022-12-18T03:23:02;-7.00;90.00
10644;DHT22;5370;50.132;8.626;2022-12-18T03:25:30;-7.10;90.10
10644;DHT22;5370;50.132;8.626;2022-12-18T03:27:58;-7.10;90.00
10644;DHT22;5370;50.132;8.626;2022-12-18T03:30:26;-7.10;90.10
10644;DHT22;5370;50.132;8.626;2022-12-18T03:33:07;-7.10;90.10
10644;DHT22;5370;50.132;8.626;2022-12-18T03:35:37;-7.10;90.10
10644;DHT22;5370;50.132;8.626;2022-12-18T03:38:04;-7.00;90.10
10644;DHT22;5370;50.132;8.626;2022-12-18T03:40:40;-7.10;90.00
10644;DHT22;5370;50.132;8.626;2022-12-18T03:46:33;-7.10;90.00
10644;DHT22;5370;50.132;8.626;2022-12-18T03:49:26;-7.20;90.00
10644;DHT22;5370;50.132;8.626;2022-12-18T03:54:58;-7.20;90.10
10644;DHT22;5370;50.132;8.626;2022-12-18T03:57:28;-7.20;90.10
10644;DHT22;5370;50.132;8.626;2022-12-18T04:00:02;-7.20;90.10
10644;DHT22;5370;50.132;8.626;2022-12-18T04:02:30;-7.20;90.10
10644;DHT22;5370;50.132;8.626;2022-12-18T04:04:59;-7.20;90.10
10644;DHT22;5370;50.132;8.626;2022-12-18T04:07:25;-7.20;90.10
10644;DHT22;5370;50.132;8.626;2022-12-18T04:09:54;-7.20;90.10
10644;DHT22;5370;50.132;8.626;2022-12-18T04:12:23;-7.20;90.10
10644;DHT22;5370;50.132;8.626;2022-12-18T04:14:49;-7.20;90.20
10644;DHT22;5370;50.132;8.626;2022-12-18T04:17:14;-7.20;90.20
10644;DHT22;5370;50.132;8.626;2022-12-18T04:19:40;-7.20;90.10
10644;DHT22;5370;50.132;8.626;2022-12-18T04:22:05;-7.20;90.10
10644;DHT22;5370;50.132;8.626;2022-12-18T04:24:31;-7.20;90.10
10644;DHT22;5370;50.132;8.626;2022-12-18T04:26:56;-7.20;90.00
10644;DHT22;5370;50.132;8.626;2022-12-18T04:29:22;-7.20;90.00
10644;DHT22;5370;50.132;8.626;2022-12-18T04:31:47;-7.20;90.00
10644;DHT22;5370;50.132;8.626;2022-12-18T04:34:13;-7.30;89.90
10644;DHT22;5370;50.132;8.626;2022-12-18T04:36:38;-7.30;89.90
10644;DHT22;5370;50.132;8.626;2022-12-18T04:39:04;-7.30;90.00
10644;DHT22;5370;50.132;8.626;2022-12-18T04:41:29;-7.30;90.00
10644;DHT22;5370;50.132;8.626;2022-12-18T04:43:55;-7.30;90.00
10644;DHT22;5370;50.132;8.626;2022-12-18T04:46:20;-7.20;90.00
10644;DHT22;5370;50.132;8.626;2022-12-18T04:48:46;-7.30;89.80
10644;DHT22;5370;50.132;8.626;2022-12-18T04:51:12;-7.30;89.70
10644;DHT22;5370;50.132;8.626;2022-12-18T04:53:38;-7.30;89.70
10644;DHT22;5370;50.132;8.626;2022-12-18T04:56:08;-7.30;89.70
10644;DHT22;5370;50.132;8.626;2022-12-18T04:58:35;-7.30;89.60
10644;DHT22;5370;50.132;8.626;2022-12-18T05:01:01;-7.30;89.70
10644;DHT22;5370;50.132;8.626;2022-12-18T05:03:27;-7.30;89.70
10644;DHT22;5370;50.132;8.626;2022-12-18T05:05:52;-7.40;89.50
10644;DHT22;5370;50.132;8.626;2022-12-18T05:08:18;-7.40;89.40
10644;DHT22;5370;50.132;8.626;2022-12-18T05:10:44;-7.40;89.50
10644;DHT22;5370;50.132;8.626;2022-12-18T05:13:09;-7.40;89.60
10644;DHT22;5370;50.132;8.626;2022-12-18T05:15:35;-7.40;89.60
10644;DHT22;5370;50.132;8.626;2022-12-18T05:18:01;-7.40;89.60
10644;DHT22;5370;50.132;8.626;2022-12-18T05:20:28;-7.40;89.40
10644;DHT22;5370;50.132;8.626;2022-12-18T05:22:54;-7.40;89.40
10644;DHT22;5370;50.132;8.626;2022-12-18T05:25:20;-7.40;89.30
10644;DHT22;5370;50.132;8.626;2022-12-18T05:27:46;-7.40;89.30
10644;DHT22;5370;50.132;8.626;2022-12-18T05:30:12;-7.50;89.20
10644;DHT22;5370;50.132;8.626;2022-12-18T05:32:38;-7.50;89.30
10644;DHT22;5370;50.132;8.626;2022-12-18T05:35:05;-7.50;89.00
10644;DHT22;5370;50.132;8.626;2022-12-18T05:37:31;-7.50;89.00
10644;DHT22;5370;50.132;8.626;2022-12-18T05:39:57;-7.40;89.10
10644;DHT22;5370;50.132;8.626;2022-12-18T05:42:22;-7.50;89.00
10644;DHT22;5370;50.132;8.626;2022-12-18T05:44:48;-7.50;88.90
10644;DHT22;5370;50.132;8.626;2022-12-18T05:47:13;-7.50;88.80
10644;DHT22;5370;50.132;8.626;2022-12-18T05:49:39;-7.50;88.80
10644;DHT22;5370;50.132;8.626;2022-12-18T05:52:04;-7.50;88.80
10644;DHT22;5370;50.132;8.626;2022-12-18T05:54:30;-7.50;88.80
10644;DHT22;5370;50.132;8.626;2022-12-18T05:56:56;-7.50;88.70
10644;DHT22;5370;50.132;8.626;2022-12-18T05:59:22;-7.50;88.60
10644;DHT22;5370;50.132;8.626;2022-12-18T06:01:47;-7.50;88.60
10644;DHT22;5370;50.132;8.626;2022-12-18T06:04:13;-7.50;88.40
10644;DHT22;5370;50.132;8.626;2022-12-18T06:06:39;-7.50;88.40
10644;DHT22;5370;50.132;8.626;2022-12-18T06:09:04;-7.50;88.40
10644;DHT22;5370;50.132;8.626;2022-12-18T06:11:36;-7.50;88.50
10644;DHT22;5370;50.132;8.626;2022-12-18T06:14:03;-7.50;88.40
10644;DHT22;5370;50.132;8.626;2022-12-18T06:16:29;-7.50;88.40
10644;DHT22;5370;50.132;8.626;2022-12-18T06:19:03;-7.50;88.40
10644;DHT22;5370;50.132;8.626;2022-12-18T06:21:29;-7.50;88.40
10644;DHT22;5370;50.132;8.626;2022-12-18T06:23:55;-7.50;88.40
10644;DHT22;5370;50.132;8.626;2022-12-18T06:26:20;-7.50;88.70
10644;DHT22;5370;50.132;8.626;2022-12-18T06:28:46;-7.40;89.20
10644;DHT22;5370;50.132;8.626;2022-12-18T06:31:12;-7.30;89.50
10644;DHT22;5370;50.132;8.626;2022-12-18T06:33:38;-7.30;89.70
10644;DHT22;5370;50.132;8.626;2022-12-18T06:36:10;-7.20;89.70
10644;DHT22;5370;50.132;8.626;2022-12-18T06:38:39;-7.20;89.30
10644;DHT22;5370;50.132;8.626;2022-12-18T06:41:09;-7.30;88.90
10644;DHT22;5370;50.132;8.626;2022-12-18T06:43:35;-7.30;88.40
10644;DHT22;5370;50.132;8.626;2022-12-18T06:46:03;-7.40;88.10
10644;DHT22;5370;50.132;8.626;2022-12-18T06:48:29;-7.40;87.90
10644;DHT22;5370;50.132;8.626;2022-12-18T06:50:54;-7.50;87.90
10644;DHT22;5370;50.132;8.626;2022-12-18T06:53:20;-7.50;87.60
10644;DHT22;5370;50.132;8.626;2022-12-18T06:55:46;-7.50;87.60
10644;DHT22;5370;50.132;8.626;2022-12-18T06:58:11;-7.60;87.40
10644;DHT22;5370;50.132;8.626;2022-12-18T07:00:37;-7.60;87.40
10644;DHT22;5370;50.132;8.626;2022-12-18T07:03:02;-7.60;87.40
10644;DHT22;5370;50.132;8.626;2022-12-18T07:05:28;-7.60;87.40
10644;DHT22;5370;50.132;8.626;2022-12-18T07:07:53;-7.60;87.40
10644;DHT22;5370;50.132;8.626;2022-12-18T07:10:19;-7.60;87.50
10644;DHT22;5370;50.132;8.626;2022-12-18T07:12:44;-7.60;87.50
10644;DHT22;5370;50.132;8.626;2022-12-18T07:15:10;-7.60;87.50
10644;DHT22;5370;50.132;8.626;2022-12-18T07:17:36;-7.60;87.40
10644;DHT22;5370;50.132;8.626;2022-12-18T07:20:01;-7.60;87.30
10644;DHT22;5370;50.132;8.626;2022-12-18T07:22:27;-7.60;87.10
10644;DHT22;5370;50.132;8.626;2022-12-18T07:24:53;-7.60;87.00
10644;DHT22;5370;50.132;8.626;2022-12-18T07:27:18;-7.60;86.90
10644;DHT22;5370;50.132;8.626;2022-12-18T07:29:44;-7.60;86.80
10644;DHT22;5370;50.132;8.626;2022-12-18T07:32:09;-7.60;86.60
10644;DHT22;5370;50.132;8.626;2022-12-18T07:34:35;-7.60;86.50
10644;DHT22;5370;50.132;8.626;2022-12-18T07:37:00;-7.70;86.40
10644;DHT22;5370;50.132;8.626;2022-12-18T07:39:26;-7.60;86.50
10644;DHT22;5370;50.132;8.626;2022-12-18T07:41:52;-7.60;86.50
10644;DHT22;5370;50.132;8.626;2022-12-18T07:44:36;-7.60;86.40
10644;DHT22;5370;50.132;8.626;2022-12-18T07:47:02;-7.60;86.40
10644;DHT22;5370;50.132;8.626;2022-12-18T07:49:28;-7.60;86.40
10644;DHT22;5370;50.132;8.626;2022-12-18T07:51:57;-7.60;86.30
10644;DHT22;5370;50.132;8.626;2022-12-18T07:54:23;-7.50;86.30
10644;DHT22;5370;50.132;8.626;2022-12-18T07:56:50;-7.50;86.30
10644;DHT22;5370;50.132;8.626;2022-12-18T07:59:16;-7.50;86.30
10644;DHT22;5370;50.132;8.626;2022-12-18T08:01:41;-7.50;86.30
10644;DHT22;5370;50.132;8.626;2022-12-18T08:04:07;-7.50;86.40
10644;DHT22;5370;50.132;8.626;2022-12-18T08:06:32;-7.50;86.40
10644;DHT22;5370;50.132;8.626;2022-12-18T08:08:58;-7.40;86.30
10644;DHT22;5370;50.132;8.626;2022-12-18T08:11:25;-7.40;86.30
10644;DHT22;5370;50.132;8.626;2022-12-18T08:13:51;-7.30;86.50
10644;DHT22;5370;50.132;8.626;2022-12-18T08:16:17;-7.30;86.50
10644;DHT22;5370;50.132;8.626;2022-12-18T08:18:43;-7.20;86.50
10644;DHT22;5370;50.132;8.626;2022-12-18T08:21:13;-7.20;86.60
10644;DHT22;5370;50.132;8.626;2022-12-18T08:23:40;-7.10;86.70
10644;DHT22;5370;50.132;8.626;2022-12-18T08:26:06;-7.00;86.90
10644;DHT22;5370;50.132;8.626;2022-12-18T08:28:32;-6.90;87.10
10644;DHT22;5370;50.132;8.626;2022-12-18T08:30:57;-6.80;87.20
10644;DHT22;5370;50.132;8.626;2022-12-18T08:33:23;-6.70;87.20
10644;DHT22;5370;50.132;8.626;2022-12-18T08:35:48;-6.50;87.50
10644;DHT22;5370;50.132;8.626;2022-12-18T08:38:14;-6.40;87.60
10644;DHT22;5370;50.132;8.626;2022-12-18T08:40:39;-6.30;87.70
10644;DHT22;5370;50.132;8.626;2022-12-18T08:43:05;-6.10;87.80
10644;DHT22;5370;50.132;8.626;2022-12-18T08:45:49;-6.00;87.50
10644;DHT22;5370;50.132;8.626;2022-12-18T08:48:14;-6.00;87.10
10644;DHT22;5370;50.132;8.626;2022-12-18T08:50:40;-5.90;86.90
10644;DHT22;5370;50.132;8.626;2022-12-18T08:53:06;-5.80;86.70
10644;DHT22;5370;50.132;8.626;2022-12-18T08:55:31;-5.80;86.20
10644;DHT22;5370;50.132;8.626;2022-12-18T08:57:57;-5.80;86.10
10644;DHT22;5370;50.132;8.626;2022-12-18T09:00:23;-5.80;85.80
10644;DHT22;5370;50.132;8.626;2022-12-18T09:02:48;-5.80;85.60
10644;DHT22;5370;50.132;8.626;2022-12-18T09:05:14;-5.80;85.40
10644;DHT22;5370;50.132;8.626;2022-12-18T09:07:39;-5.80;85.40
10644;DHT22;5370;50.132;8.626;2022-12-18T09:10:05;-5.70;85.70
10644;DHT22;5370;50.132;8.626;2022-12-18T09:12:31;-5.60;86.00
10644;DHT22;5370;50.132;8.626;2022-12-18T09:14:57;-5.60;86.10
10644;DHT22;5370;50.132;8.626;2022-12-18T09:17:23;-5.50;86.40
10644;DHT22;5370;50.132;8.626;2022-12-18T09:19:48;-5.40;86.60
10644;DHT22;5370;50.132;8.626;2022-12-18T09:22:14;-5.40;86.70
10644;DHT22;5370;50.132;8.626;2022-12-18T09:24:40;-5.30;86.90
10644;DHT22;5370;50.132;8.626;2022-12-18T09:27:05;-5.20;87.10
10644;DHT22;5370;50.132;8.626;2022-12-18T09:29:31;-5.10;87.20
10644;DHT22;5370;50.132;8.626;2022-12-18T09:31:57;-5.00;87.20
10644;DHT22;5370;50.132;8.626;2022-12-18T09:34:22;-5.00;87.30
10644;DHT22;5370;50.132;8.626;2022-12-18T09:36:48;-4.90;87.50
10644;DHT22;5370;50.132;8.626;2022-12-18T09:39:14;-4.70;88.50
10644;DHT22;5370;50.132;8.626;2022-12-18T09:41:46;-4.60;88.10
10644;DHT22;5370;50.132;8.626;2022-12-18T09:44:23;-4.50;88.30
10644;DHT22;5370;50.132;8.626;2022-12-18T09:47:11;-4.40;88.40
10644;DHT22;5370;50.132;8.626;2022-12-18T09:49:42;-4.20;88.60
10644;DHT22;5370;50.132;8.626;2022-12-18T09:52:14;-4.10;88.80
10644;DHT22;5370;50.132;8.626;2022-12-18T09:54:42;-4.00;89.00
10644;DHT22;5370;50.132;8.626;2022-12-18T09:57:30;-3.80;89.30
10644;DHT22;5370;50.132;8.626;2022-12-18T10:00:16;-3.60;89.10
10644;DHT22;5370;50.132;8.626;2022-12-18T10:02:43;-3.50;88.90
10644;DHT22;5370;50.132;8.626;2022-12-18T10:05:19;-3.40;88.60
10644;DHT22;5370;50.132;8.626;2022-12-18T10:10:45;-3.10;88.70
10644;DHT22;5370;50.132;8.626;2022-12-18T10:19:15;-2.60;87.90
10644;DHT22;5370;50.132;8.626;2022-12-18T10:22:02;-2.60;86.50
10644;DHT22;5370;50.132;8.626;2022-12-18T10:27:25;-2.40;86.70
10644;DHT22;5370;50.132;8.626;2022-12-18T10:29:51;-2.30;86.80
10644;DHT22;5370;50.132;8.626;2022-12-18T10:32:20;-2.10;87.10
10644;DHT22;5370;50.132;8.626;2022-12-18T10:34:50;-1.90;87.30
10644;DHT22;5370;50.132;8.626;2022-12-18T10:37:18;-1.70;87.10
10644;DHT22;5370;50.132;8.626;2022-12-18T10:39:46;-1.60;86.30
10644;DHT22;5370;50.132;8.626;2022-12-18T10:42:19;-1.60;84.90
10644;DHT22;5370;50.132;8.626;2022-12-18T10:44:45;-1.50;84.50
10644;DHT22;5370;50.132;8.626;2022-12-18T10:47:18;-1.40;84.30
10644;DHT22;5370;50.132;8.626;2022-12-18T10:49:52;-1.30;84.10
10644;DHT22;5370;50.132;8.626;2022-12-18T10:52:24;-1.20;83.70
10644;DHT22;5370;50.132;8.626;2022-12-18T10:54:52;-1.10;83.20
10644;DHT22;5370;50.132;8.626;2022-12-18T10:57:39;-0.90;83.00
10644;DHT22;5370;50.132;8.626;2022-12-18T11:00:28;-0.70;83.20
10644;DHT22;5370;50.132;8.626;2022-12-18T11:02:54;-0.60;82.90
10644;DHT22;5370;50.132;8.626;2022-12-18T11:07:52;-0.60;78.60
10644;DHT22;5370;50.132;8.626;2022-12-18T11:10:21;-0.60;78.50
10644;DHT22;5370;50.132;8.626;2022-12-18T11:12:47;-0.50;78.90
10644;DHT22;5370;50.132;8.626;2022-12-18T11:15:18;-0.40;78.40
10644;DHT22;5370;50.132;8.626;2022-12-18T11:17:48;-0.20;78.10
10644;DHT22;5370;50.132;8.626;2022-12-18T11:20:31;-0.10;78.10
10644;DHT22;5370;50.132;8.626;2022-12-18T11:22:59;0.00;77.50
10644;DHT22;5370;50.132;8.626;2022-12-18T11:25:25;0.10;76.70
10644;DHT22;5370;50.132;8.626;2022-12-18T11:27:55;0.10;75.20
10644;DHT22;5370;50.132;8.626;2022-12-18T11:30:28;0.10;74.20
10644;DHT22;5370;50.132;8.626;2022-12-18T11:33:04;0.10;73.60
10644;DHT22;5370;50.132;8.626;2022-12-18T11:36:02;0.10;73.20
10644;DHT22;5370;50.132;8.626;2022-12-18T11:38:32;0.10;72.90
10644;DHT22;5370;50.132;8.626;2022-12-18T11:41:21;0.00;72.60
10644;DHT22;5370;50.132;8.626;2022-12-18T11:44:12;0.10;72.40
10644;DHT22;5370;50.132;8.626;2022-12-18T11:46:46;0.00;71.70
10644;DHT22;5370;50.132;8.626;2022-12-18T11:49:22;0.00;71.50
10644;DHT22;5370;50.132;8.626;2022-12-18T11:52:04;0.10;71.50
10644;DHT22;5370;50.132;8.626;2022-12-18T11:54:34;0.00;70.70
10644;DHT22;5370;50.132;8.626;2022-12-18T12:02:41;0.00;70.30
10644;DHT22;5370;50.132;8.626;2022-12-18T12:05:24;-0.10;69.60
10644;DHT22;5370;50.132;8.626;2022-12-18T12:13:52;0.10;70.70
10644;DHT22;5370;50.132;8.626;2022-12-18T12:16:34;0.20;70.60
10644;DHT22;5370;50.132;8.626;2022-12-18T12:19:37;0.30;70.70
10644;DHT22;5370;50.132;8.626;2022-12-18T12:22:13;0.30;70.50
10644;DHT22;5370;50.132;8.626;2022-12-18T12:30:05;0.40;70.20
10644;DHT22;5370;50.132;8.626;2022-12-18T12:33:00;0.40;70.90
10644;DHT22;5370;50.132;8.626;2022-12-18T12:38:22;0.50;71.40
10644;DHT22;5370;50.132;8.626;2022-12-18T12:41:07;0.50;71.10
10644;DHT22;5370;50.132;8.626;2022-12-18T12:43:57;0.50;70.90
10644;DHT22;5370;50.132;8.626;2022-12-18T12:46:24;0.60;70.70
10644;DHT22;5370;50.132;8.626;2022-12-18T12:49:02;0.50;70.00
10644;DHT22;5370;50.132;8.626;2022-12-18T12:51:35;0.50;69.90
10644;DHT22;5370;50.132;8.626;2022-12-18T12:54:05;0.50;69.70
10644;DHT22;5370;50.132;8.626;2022-12-18T12:56:44;0.50;69.70
10644;DHT22;5370;50.132;8.626;2022-12-18T13:02:24;0.40;69.40
10644;DHT22;5370;50.132;8.626;2022-12-18T13:07:45;0.40;69.30
10644;DHT22;5370;50.132;8.626;2022-12-18T13:12:57;0.40;69.20
10644;DHT22;5370;50.132;8.626;2022-12-18T13:17:48;0.40;69.00
10644;DHT22;5370;50.132;8.626;2022-12-18T13:20:15;0.40;68.70
10644;DHT22;5370;50.132;8.626;2022-12-18T13:22:44;0.40;68.70
10644;DHT22;5370;50.132;8.626;2022-12-18T13:25:30;0.40;68.70
10644;DHT22;5370;50.132;8.626;2022-12-18T13:38:23;0.40;68.60
10644;DHT22;5370;50.132;8.626;2022-12-18T13:46:05;0.30;68.30
10644;DHT22;5370;50.132;8.626;2022-12-18T13:48:33;0.10;67.50
10644;DHT22;5370;50.132;8.626;2022-12-18T13:51:09;-0.10;67.60
10644;DHT22;5370;50.132;8.626;2022-12-18T13:53:46;-0.10;68.50
10644;DHT22;5370;50.132;8.626;2022-12-18T13:56:18;-0.10;69.30
10644;DHT22;5370;50.132;8.626;2022-12-18T13:58:43;-0.10;70.20
10644;DHT22;5370;50.132;8.626;2022-12-18T14:01:22;-0.10;70.80
10644;DHT22;5370;50.132;8.626;2022-12-18T14:03:48;-0.10;70.70
10644;DHT22;5370;50.132;8.626;2022-12-18T14:06:14;-0.10;70.10
10644;DHT22;5370;50.132;8.626;2022-12-18T14:08:43;-0.10;70.10
10644;DHT22;5370;50.132;8.626;2022-12-18T14:11:22;-0.10;69.90
10644;DHT22;5370;50.132;8.626;2022-12-18T14:13:48;-0.10;69.90
10644;DHT22;5370;50.132;8.626;2022-12-18T14:16:15;-0.20;69.70
10644;DHT22;5370;50.132;8.626;2022-12-18T14:18:45;-0.30;69.60
10644;DHT22;5370;50.132;8.626;2022-12-18T14:21:38;-0.40;69.60
10644;DHT22;5370;50.132;8.626;2022-12-18T14:26:31;-0.60;70.00
10644;DHT22;5370;50.132;8.626;2022-12-18T14:29:00;-0.60;70.20
10644;DHT22;5370;50.132;8.626;2022-12-18T14:31:28;-0.80;70.10
10644;DHT22;5370;50.132;8.626;2022-12-18T14:33:55;-0.80;71.20
10644;DHT22;5370;50.132;8.626;2022-12-18T14:36:28;-0.90;70.80
10644;DHT22;5370;50.132;8.626;2022-12-18T14:38:58;-1.00;71.00
10644;DHT22;5370;50.132;8.626;2022-12-18T14:44:12;-1.00;71.30
10644;DHT22;5370;50.132;8.626;2022-12-18T14:46:39;-1.10;71.50
10644;DHT22;5370;50.132;8.626;2022-12-18T14:49:33;-1.10;71.70
10644;DHT22;5370;50.132;8.626;2022-12-18T14:52:04;-1.10;71.90
10644;DHT22;5370;50.132;8.626;2022-12-18T14:54:31;-1.20;71.90
10644;DHT22;5370;50.132;8.626;2022-12-18T14:59:31;-1.10;72.40
10644;DHT22;5370;50.132;8.626;2022-12-18T15:01:59;-1.10;72.50
10644;DHT22;5370;50.132;8.626;2022-12-18T15:04:31;-1.10;72.50
10644;DHT22;5370;50.132;8.626;2022-12-18T15:07:19;-1.10;72.60
10644;DHT22;5370;50.132;8.626;2022-12-18T15:10:09;-1.10;72.60
10644;DHT22;5370;50.132;8.626;2022-12-18T15:23:12;-1.20;73.50
10644;DHT22;5370;50.132;8.626;2022-12-18T15:25:38;-1.20;73.60
10644;DHT22;5370;50.132;8.626;2022-12-18T15:28:57;-1.20;73.70
10644;DHT22;5370;50.132;8.626;2022-12-18T15:31:22;-1.20;73.90
10644;DHT22;5370;50.132;8.626;2022-12-18T15:36:19;-1.20;74.10
10644;DHT22;5370;50.132;8.626;2022-12-18T15:38:49;-1.30;74.10
10644;DHT22;5370;50.132;8.626;2022-12-18T15:41:16;-1.30;74.20
10644;DHT22;5370;50.132;8.626;2022-12-18T15:43:42;-1.40;74.30
10644;DHT22;5370;50.132;8.626;2022-12-18T15:46:19;-1.30;74.50
10644;DHT22;5370;50.132;8.626;2022-12-18T15:48:50;-1.40;74.60
10644;DHT22;5370;50.132;8.626;2022-12-18T15:51:22;-1.40;74.70
10644;DHT22;5370;50.132;8.626;2022-12-18T15:53:50;-1.50;74.80
10644;DHT22;5370;50.132;8.626;2022-12-18T15:56:17;-1.50;75.00
10644;DHT22;5370;50.132;8.626;2022-12-18T15:59:08;-1.60;75.20
10644;DHT22;5370;50.132;8.626;2022-12-18T16:01:35;-1.60;75.40
10644;DHT22;5370;50.132;8.626;2022-12-18T16:04:00;-1.70;75.70
10644;DHT22;5370;50.132;8.626;2022-12-18T16:06:26;-1.70;75.90
10644;DHT22;5370;50.132;8.626;2022-12-18T16:08:51;-1.80;76.00
10644;DHT22;5370;50.132;8.626;2022-12-18T16:13:46;-1.90;76.30
10644;DHT22;5370;50.132;8.626;2022-12-18T16:16:11;-1.90;76.50
10644;DHT22;5370;50.132;8.626;2022-12-18T16:18:37;-2.00;76.60
10644;DHT22;5370;50.132;8.626;2022-12-18T16:21:02;-1.90;76.90
10644;DHT22;5370;50.132;8.626;2022-12-18T16:23:28;-2.00;77.10
10644;DHT22;5370;50.132;8.626;2022-12-18T16:25:54;-2.00;77.30
10644;DHT22;5370;50.132;8.626;2022-12-18T16:28:19;-2.00;77.50
10644;DHT22;5370;50.132;8.626;2022-12-18T16:30:45;-2.00;77.70
10644;DHT22;5370;50.132;8.626;2022-12-18T16:33:10;-2.00;77.80
10644;DHT22;5370;50.132;8.626;2022-12-18T16:35:36;-2.00;78.00
10644;DHT22;5370;50.132;8.626;2022-12-18T16:38:02;-2.00;78.10
10644;DHT22;5370;50.132;8.626;2022-12-18T16:40:28;-2.00;78.20
10644;DHT22;5370;50.132;8.626;2022-12-18T16:42:56;-2.00;78.20
10644;DHT22;5370;50.132;8.626;2022-12-18T16:45:22;-2.00;78.30
10644;DHT22;5370;50.132;8.626;2022-12-18T16:47:47;-2.00;78.50
10644;DHT22;5370;50.132;8.626;2022-12-18T16:50:13;-2.00;78.50
10644;DHT22;5370;50.132;8.626;2022-12-18T16:52:39;-1.90;78.70
10644;DHT22;5370;50.132;8.626;2022-12-18T16:55:05;-1.90;78.70
10644;DHT22;5370;50.132;8.626;2022-12-18T16:57:31;-1.90;78.80
10644;DHT22;5370;50.132;8.626;2022-12-18T16:59:57;-1.90;78.80
10644;DHT22;5370;50.132;8.626;2022-12-18T17:02:25;-1.90;78.80
10644;DHT22;5370;50.132;8.626;2022-12-18T17:04:56;-1.90;78.90
10644;DHT22;5370;50.132;8.626;2022-12-18T17:07:22;-1.90;79.40
10644;DHT22;5370;50.132;8.626;2022-12-18T17:09:48;-1.70;80.30
10644;DHT22;5370;50.132;8.626;2022-12-18T17:12:14;-1.70;81.60
10644;DHT22;5370;50.132;8.626;2022-12-18T17:14:40;-1.60;82.30
10644;DHT22;5370;50.132;8.626;2022-12-18T17:17:06;-1.50;82.30
10644;DHT22;5370;50.132;8.626;2022-12-18T17:19:32;-1.40;82.40
10644;DHT22;5370;50.132;8.626;2022-12-18T17:21:57;-1.30;82.40
10644;DHT22;5370;50.132;8.626;2022-12-18T17:24:23;-1.30;82.10
10644;DHT22;5370;50.132;8.626;2022-12-18T17:26:49;-1.20;81.80
10644;DHT22;5370;50.132;8.626;2022-12-18T17:29:17;-1.20;81.50
10644;DHT22;5370;50.132;8.626;2022-12-18T17:31:45;-1.10;81.30
10644;DHT22;5370;50.132;8.626;2022-12-18T17:34:11;-1.10;81.00
10644;DHT22;5370;50.132;8.626;2022-12-18T17:36:37;-1.10;80.80
10644;DHT22;5370;50.132;8.626;2022-12-18T17:39:03;-1.00;81.40
10644;DHT22;5370;50.132;8.626;2022-12-18T17:41:30;-0.90;80.70
10644;DHT22;5370;50.132;8.626;2022-12-18T17:43:58;-1.00;80.60
10644;DHT22;5370;50.132;8.626;2022-12-18T17:46:25;-1.00;80.60
10644;DHT22;5370;50.132;8.626;2022-12-18T17:48:51;-0.90;80.60
10644;DHT22;5370;50.132;8.626;2022-12-18T17:51:19;-0.90;80.60
10644;DHT22;5370;50.132;8.626;2022-12-18T17:53:44;-0.90;80.30
10644;DHT22;5370;50.132;8.626;2022-12-18T17:56:14;-0.90;80.10